Terminal Aerodrome Forecast
Issued by NWS Sterling, VA

Current Version | Previous Version | Text Only | Print | Product List | Glossary Off
Versions: 1 2 3 4 5 6 7 8 9 10 11 12 13 14 15 16 17 18 19 20 21 22 23 24 25

000
FTUS41 KLWX 170500
TAFIAD
TAF
KIAD 170540Z 1706/1812 VRB03KT P6SM BKN120
     FM171500 29007KT P6SM SCT040 BKN110
     FM180200 VRB03KT P6SM SCT040 BKN130=

USA.gov is the U.S. government's official web portal to all federal, state and local government web resources and services.